Time;durP1;ratioP1;P1;durP2;ratioP2;P2;SDS_P1;SDS_P2;PMS_P1;PMS_P2;Temp;Humidity;BMP_temperature;BMP_pressure;BME280_temperature;BME280_humidity;BME280_pressure;Samples;Min_cycle;Max_cycle;Signal;HPM_P1;HPM_P2
2024/01/09 00:00:48;;;;;;;6.10;1.88;;;-2.90;98.90;;;-3.62;94.89;102540.91;5243220;28;20041;-44
2024/01/09 00:03:20;;;;;;;2.05;1.88;;;-2.90;99.00;;;-3.66;95.29;102536.16;5243379;28;20045;-44
2024/01/09 00:05:53;;;;;;;5.68;2.83;;;-3.00;99.20;;;-3.67;95.57;102548.72;5236595;28;20049;-43
2024/01/09 00:08:26;;;;;;;1.77;1.38;;;-3.00;99.30;;;-3.69;95.64;102535.81;5235500;28;20106;-45
2024/01/09 00:11:00;;;;;;;6.95;2.00;;;-3.00;99.40;;;-3.68;96.05;102542.72;5243013;28;20461;-45
2024/01/09 00:13:33;;;;;;;1.70;1.58;;;-3.00;99.70;;;-3.71;95.85;102537.28;5227495;28;20056;-44
2024/01/09 00:16:06;;;;;;;7.00;2.83;;;-3.10;99.60;;;-3.72;96.23;102534.53;5222237;28;20076;-43
2024/01/09 00:18:38;;;;;;;0.98;0.95;;;-3.10;99.90;;;-3.74;96.41;102535.97;5225891;28;20057;-43
2024/01/09 00:21:10;;;;;;;12.10;2.75;;;-3.10;99.90;;;-3.77;96.43;102544.19;5232702;28;20053;-43
2024/01/09 00:23:47;;;;;;;1.08;0.88;;;-3.10;99.90;;;-3.79;96.92;102537.06;5239352;28;20056;-43
2024/01/09 00:26:22;;;;;;;2.35;1.95;;;-3.10;99.90;;;-3.82;97.21;102542.72;5182265;28;20137;-44
2024/01/09 00:28:54;;;;;;;5.18;1.92;;;-3.20;99.90;;;-3.88;97.71;102542.91;5222335;28;20049;-43
2024/01/09 00:31:26;;;;;;;2.38;2.00;;;-3.20;99.90;;;-3.91;97.71;102539.09;5222055;28;20082;-44
2024/01/09 00:33:58;;;;;;;5.22;2.00;;;-3.20;99.90;;;-3.93;97.67;102543.97;5241747;28;20130;-43
2024/01/09 00:36:30;;;;;;;1.45;1.35;;;-3.30;99.90;;;-3.95;97.51;102540.34;5231152;28;20577;-44
2024/01/09 00:39:04;;;;;;;4.43;1.17;;;-3.30;99.90;;;-3.98;97.76;102539.06;5231646;28;20032;-44
2024/01/09 00:41:36;;;;;;;1.50;1.35;;;-3.30;99.90;;;-4.00;97.39;102530.31;5226369;28;20049;-44
2024/01/09 00:44:09;;;;;;;2.20;2.00;;;-3.30;99.90;;;-4.03;98.07;102535.97;5222677;28;20041;-43
2024/01/09 00:46:41;;;;;;;2.95;1.52;;;-3.30;99.90;;;-4.05;98.23;102539.03;5235753;28;20533;-43
2024/01/09 00:49:13;;;;;;;3.70;1.95;;;-3.40;99.90;;;-4.09;98.47;102542.88;5237534;28;20052;-43
2024/01/09 00:51:46;;;;;;;1.38;0.77;;;-3.40;99.90;;;-4.11;98.84;102546.84;5237582;28;20415;-43
2024/01/09 00:54:20;;;;;;;2.83;2.28;;;-3.40;99.90;;;-4.14;98.96;102539.75;5241149;28;20391;-45
2024/01/09 00:56:52;;;;;;;2.10;1.25;;;-3.40;99.90;;;-4.15;99.04;102534.50;5222138;28;20053;-43
2024/01/09 00:59:24;;;;;;;2.15;1.95;;;-3.40;99.90;;;-4.15;99.16;102535.41;5237533;28;20049;-44
2024/01/09 01:01:57;;;;;;;1.60;1.52;;;-3.50;99.90;;;-4.16;99.77;102542.88;5243743;28;20054;-43
2024/01/09 01:04:29;;;;;;;3.90;1.67;;;-3.50;99.90;;;-4.17;99.73;102534.31;5228397;28;20041;-44
2024/01/09 01:07:01;;;;;;;3.55;1.80;;;-3.50;99.90;;;-4.17;99.73;102536.88;5226634;28;20075;-43
2024/01/09 01:09:35;;;;;;;2.60;2.05;;;-3.50;99.90;;;-4.19;99.79;102538.28;5246188;28;20694;-45
2024/01/09 01:12:08;;;;;;;1.70;1.30;;;-3.50;99.90;;;-4.19;99.88;102543.38;5241906;28;20041;-44
2024/01/09 01:14:40;;;;;;;2.28;0.77;;;-3.50;99.90;;;-4.20;100.00;102541.56;5225413;28;20045;-43
2024/01/09 01:17:12;;;;;;;4.05;1.17;;;-3.50;99.90;;;-4.22;100.00;102537.94;5245829;28;20048;-43
2024/01/09 01:19:45;;;;;;;2.00;1.05;;;-3.50;99.90;;;-4.22;100.00;102547.22;5233083;28;20064;-44
2024/01/09 01:22:17;;;;;;;3.17;1.58;;;-3.50;99.90;;;-4.24;100.00;102541.00;5225411;28;20049;-42
2024/01/09 01:24:51;;;;;;;1.67;1.13;;;-3.60;99.90;;;-4.30;100.00;102538.66;5241167;28;20049;-43
2024/01/09 01:27:23;;;;;;;1.85;1.75;;;-3.60;99.90;;;-4.34;100.00;102540.63;5233221;28;20053;-43
2024/01/09 01:29:59;;;;;;;4.32;1.35;;;-3.60;99.90;;;-4.35;100.00;102542.28;5233047;28;20535;-45
2024/01/09 01:32:31;;;;;;;0.80;0.80;;;-3.60;99.90;;;-4.37;100.00;102546.25;5234701;28;20095;-44
2024/01/09 01:35:05;;;;;;;5.72;2.25;;;-3.70;99.90;;;-4.38;100.00;102540.25;5226637;28;20041;-44
2024/01/09 01:37:37;;;;;;;0.93;0.93;;;-3.70;99.90;;;-4.37;100.00;102536.06;5241413;28;20044;-44
2024/01/09 01:40:13;;;;;;;1.70;1.33;;;-3.60;99.90;;;-4.35;100.00;102539.72;5224563;28;20041;-43
2024/01/09 01:42:45;;;;;;;;;;;-3.70;99.90;;;-4.33;100.00;102532.25;5225315;28;20049;-43
2024/01/09 01:45:24;;;;;;;0.98;0.95;;;-3.60;99.90;;;-4.33;100.00;102533.16;5225090;28;19921;-43
2024/01/09 01:48:01;;;;;;;2.72;1.42;;;-3.60;99.90;;;-4.33;100.00;102533.16;5228224;28;20114;-44
2024/01/09 01:50:34;;;;;;;1.60;1.42;;;-3.70;99.90;;;-4.34;100.00;102536.44;5224698;28;20068;-45
2024/01/09 01:53:08;;;;;;;1.40;1.25;;;-3.60;99.90;;;-4.35;100.00;102533.72;5243099;28;20049;-44
2024/01/09 01:55:42;;;;;;;2.92;1.42;;;-3.60;99.90;;;-4.37;100.00;102536.06;5241813;28;20061;-45
2024/01/09 01:58:16;;;;;;;2.42;1.73;;;-3.70;99.90;;;-4.41;100.00;102534.78;5212924;28;20095;-44
2024/01/09 02:00:49;;;;;;;6.95;2.08;;;-3.70;99.90;;;-4.43;100.00;102535.34;5241392;28;20519;-42
2024/01/09 02:03:22;;;;;;;0.98;0.95;;;-3.70;99.90;;;-4.45;100.00;102536.78;5224906;28;20041;-45
2024/01/09 02:05:58;;;;;;;2.55;1.50;;;-3.70;99.90;;;-4.47;100.00;102533.13;5243133;28;20051;-44
2024/01/09 02:08:31;;;;;;;2.17;1.98;;;-3.80;99.90;;;-4.52;100.00;102534.19;5256456;28;20462;-43
2024/01/09 02:11:05;;;;;;;2.15;1.52;;;-3.80;99.90;;;-4.54;100.00;102535.66;5223620;28;20049;-44
2024/01/09 02:13:37;;;;;;;2.20;2.00;;;-3.80;99.90;;;-4.59;100.00;102541.81;5236440;28;20080;-45
2024/01/09 02:16:10;;;;;;;5.93;2.33;;;-3.90;99.90;;;-4.64;100.00;102539.59;5258727;28;20143;-43
2024/01/09 02:18:42;;;;;;;3.28;1.92;;;-3.90;99.90;;;-4.67;100.00;102546.88;5239621;28;20048;-45
2024/01/09 02:21:14;;;;;;;3.13;1.50;;;-3.90;99.90;;;-4.68;100.00;102539.06;5225407;28;20108;-43
2024/01/09 02:23:50;;;;;;;2.80;1.63;;;-3.90;99.90;;;-4.71;100.00;102542.13;5229908;28;20090;-44
2024/01/09 02:26:31;;;;;;;1.25;0.77;;;-4.00;99.90;;;-4.71;100.00;102546.31;5244799;28;20071;-45
2024/01/09 02:29:09;;;;;;;1.17;0.75;;;-4.00;99.90;;;-4.73;100.00;102542.69;5248350;28;20403;-42
2024/01/09 02:31:43;;;;;;;2.17;1.70;;;-4.00;99.90;;;-4.74;100.00;102541.75;5261390;28;20052;-45
2024/01/09 02:34:16;;;;;;;1.35;1.20;;;-4.00;99.90;;;-4.74;100.00;102536.69;5244397;28;20390;-45
2024/01/09 02:36:48;;;;;;;6.60;1.48;;;-4.00;99.90;;;-4.74;100.00;102541.75;5244465;28;20044;-43
2024/01/09 02:39:21;;;;;;;2.65;2.00;;;-4.00;99.90;;;-4.74;100.00;102536.69;5240025;28;20507;-44
2024/01/09 02:41:53;;;;;;;6.35;1.85;;;-4.00;99.90;;;-4.74;100.00;102534.13;5223695;28;20049;-43
2024/01/09 02:44:25;;;;;;;2.33;1.95;;;-4.00;99.90;;;-4.72;100.00;102536.84;5236258;28;20089;-42
2024/01/09 02:46:59;;;;;;;2.15;1.63;;;-4.00;99.90;;;-4.70;100.00;102533.75;5240582;28;20057;-44
2024/01/09 02:49:32;;;;;;;2.08;1.10;;;-4.00;99.90;;;-4.69;100.00;102530.53;5248388;28;20077;-45
2024/01/09 02:52:05;;;;;;;3.45;1.20;;;-4.00;99.90;;;-4.67;100.00;102528.16;5238438;28;20045;-46
2024/01/09 02:54:37;;;;;;;8.20;2.17;;;-4.00;99.90;;;-4.66;100.00;102528.34;5228458;28;20044;-43
2024/01/09 02:57:11;;;;;;;2.25;1.73;;;-3.90;99.90;;;-4.64;100.00;102529.44;5247057;28;20049;-44
2024/01/09 02:59:43;;;;;;;1.55;1.45;;;-4.00;99.90;;;-4.62;100.00;102533.81;5223471;28;20561;-44
2024/01/09 03:02:17;;;;;;;1.05;1.02;;;-4.00;99.90;;;-4.64;100.00;102528.53;5225021;28;20039;-44
2024/01/09 03:04:49;;;;;;;0.90;0.75;;;-4.00;99.90;;;-4.66;100.00;102525.78;5243856;28;20064;-44
2024/01/09 03:07:21;;;;;;;2.58;1.70;;;-4.00;99.90;;;-4.67;100.00;102529.06;5243989;28;20388;-44
2024/01/09 03:09:54;;;;;;;2.72;1.55;;;-3.90;99.90;;;-4.69;100.00;102520.34;5239489;28;20048;-45
2024/01/09 03:12:26;;;;;;;4.65;0.73;;;-4.00;99.90;;;-4.69;100.00;102524.53;5234211;28;20048;-44
2024/01/09 03:14:59;;;;;;;1.33;1.27;;;-4.00;99.90;;;-4.68;100.00;102532.34;5239702;28;20045;-44
2024/01/09 03:17:33;;;;;;;1.20;1.13;;;-4.00;99.90;;;-4.68;100.00;102524.72;5222894;28;20416;-44
2024/01/09 03:20:10;;;;;;;3.90;2.05;;;-4.00;99.90;;;-4.68;100.00;102529.78;5234726;28;20040;-42
2024/01/09 03:22:43;;;;;;;6.35;1.77;;;-4.00;99.90;;;-4.69;100.00;102520.34;5229917;28;20388;-45
2024/01/09 03:25:15;;;;;;;3.83;0.63;;;-4.00;99.90;;;-4.71;100.00;102524.31;5246869;28;20065;-44
2024/01/09 03:27:47;;;;;;;1.65;1.02;;;-4.00;99.90;;;-4.72;100.00;102521.59;5237026;28;20044;-44
2024/01/09 03:30:20;;;;;;;1.90;1.33;;;-4.00;99.90;;;-4.75;100.00;102514.50;5257787;28;20094;-44
2024/01/09 03:32:53;;;;;;;4.00;1.20;;;-4.00;99.90;;;-4.79;100.00;102512.28;5227629;28;20058;-44
2024/01/09 03:35:26;;;;;;;2.13;1.58;;;-4.00;99.90;;;-4.82;100.00;102518.66;5222924;28;20045;-44
2024/01/09 03:37:58;;;;;;;3.10;1.30;;;-4.10;99.90;;;-4.83;100.00;102515.16;5234594;28;20099;-44
2024/01/09 03:40:31;;;;;;;1.55;1.30;;;-4.10;99.90;;;-4.84;100.00;102515.00;5228038;28;20094;-44
2024/01/09 03:43:06;;;;;;;2.58;1.35;;;-4.10;99.90;;;-4.88;100.00;102510.28;5255960;28;20495;-45
2024/01/09 03:45:39;;;;;;;7.72;2.10;;;-4.20;99.90;;;-4.89;100.00;102513.50;5231601;28;20551;-43
2024/01/09 03:48:13;;;;;;;0.80;0.80;;;-4.20;99.90;;;-4.93;100.00;102513.16;5253096;28;20418;-44
2024/01/09 03:50:45;;;;;;;3.65;1.15;;;-4.20;99.90;;;-4.96;100.00;102512.75;5239249;28;20068;-44
2024/01/09 03:53:17;;;;;;;1.73;1.52;;;-4.20;99.90;;;-5.00;100.00;102515.66;5222266;28;20040;-44
2024/01/09 03:55:50;;;;;;;1.33;1.23;;;-4.30;99.90;;;-4.99;100.00;102516.56;5222419;28;20045;-44
2024/01/09 03:58:22;;;;;;;1.13;0.75;;;-4.30;99.90;;;-4.99;100.00;102521.66;5222567;28;20136;-43
2024/01/09 04:00:54;;;;;;;2.10;1.63;;;-4.30;99.90;;;-5.02;100.00;102521.25;5222536;28;20071;-43
2024/01/09 04:03:28;;;;;;;4.22;1.33;;;-4.30;99.90;;;-5.04;100.00;102527.78;5229934;28;20037;-46
2024/01/09 04:06:04;;;;;;;1.63;1.52;;;-4.30;99.90;;;-5.06;100.00;102519.06;5222419;28;20489;-44
2024/01/09 04:08:37;;;;;;;1.33;1.23;;;-4.30;99.90;;;-5.08;100.00;102515.44;5223119;28;20462;-43
2024/01/09 04:11:09;;;;;;;1.45;1.38;;;-4.30;99.90;;;-5.11;100.00;102515.03;5222019;28;20044;-43
2024/01/09 04:13:42;;;;;;;2.55;1.55;;;-4.40;99.90;;;-5.11;100.00;102520.13;5222462;28;20048;-44
2024/01/09 04:16:14;;;;;;;1.40;1.40;;;-4.40;99.90;;;-5.12;100.00;102523.41;5223605;28;20052;-44
2024/01/09 04:18:48;;;;;;;1.17;1.17;;;-4.40;99.90;;;-5.14;100.00;102525.75;5245434;28;20415;-44
2024/01/09 04:21:20;;;;;;;1.33;1.23;;;-4.40;99.90;;;-5.17;100.00;102520.28;5222077;28;20110;-45
2024/01/09 04:23:53;;;;;;;1.45;1.35;;;-4.40;99.90;;;-5.20;100.00;102520.81;5222144;28;20078;-44
2024/01/09 04:26:25;;;;;;;4.00;1.80;;;-4.40;99.90;;;-5.20;100.00;102522.47;5226699;28;20454;-45
2024/01/09 04:28:57;;;;;;;1.38;0.80;;;-4.50;99.90;;;-5.22;100.00;102522.28;5243179;28;20112;-45
2024/01/09 04:31:30;;;;;;;0.57;0.57;;;-4.50;99.90;;;-5.25;100.00;102519.34;5238700;28;20075;-44
2024/01/09 04:34:04;;;;;;;3.42;1.52;;;-4.50;99.90;;;-5.27;100.00;102513.16;5222037;28;20048;-44
2024/01/09 04:36:36;;;;;;;1.05;1.05;;;-4.50;99.90;;;-5.26;100.00;102517.50;5242780;28;20065;-44
2024/01/09 04:39:08;;;;;;;8.40;1.83;;;-4.50;99.90;;;-5.26;100.00;102519.16;5226131;28;20045;-45
2024/01/09 04:41:41;;;;;;;1.15;1.10;;;-4.50;99.90;;;-5.29;100.00;102509.50;5225902;28;20458;-43
2024/01/09 04:44:13;;;;;;;2.42;2.15;;;-4.50;99.90;;;-5.30;100.00;102514.38;5244010;28;20598;-44
2024/01/09 04:46:45;;;;;;;1.40;0.55;;;-4.60;99.90;;;-5.32;100.00;102509.13;5242602;28;20041;-43
2024/01/09 04:49:19;;;;;;;1.65;1.00;;;-4.60;99.90;;;-5.35;100.00;102513.81;5237849;28;20052;-43
2024/01/09 04:51:52;;;;;;;3.33;1.90;;;-4.60;99.90;;;-5.36;100.00;102506.00;5242282;28;20076;-44
2024/01/09 04:54:24;;;;;;;2.05;1.42;;;-4.60;99.90;;;-5.38;100.00;102515.06;5245206;28;20569;-43
2024/01/09 04:56:57;;;;;;;1.58;1.48;;;-4.70;99.90;;;-5.41;100.00;102507.03;5246345;28;20094;-44
2024/01/09 04:59:29;;;;;;;2.55;1.30;;;-4.60;99.90;;;-5.44;100.00;102510.13;5246795;28;20534;-43
2024/01/09 05:02:02;;;;;;;1.80;1.15;;;-4.70;99.90;;;-5.46;100.00;102503.94;5242125;28;20073;-43
2024/01/09 05:04:36;;;;;;;3.15;1.70;;;-4.70;99.90;;;-5.46;100.00;102503.94;5225595;28;20516;-45
2024/01/09 05:07:08;;;;;;;3.38;1.25;;;-4.70;99.90;;;-5.47;100.00;102502.13;5246176;28;20052;-43
2024/01/09 05:09:40;;;;;;;1.30;1.13;;;-4.70;99.90;;;-5.52;100.00;102499.00;5241171;28;20041;-45
2024/01/09 05:12:16;;;;;;;0.95;0.88;;;-4.80;99.90;;;-5.55;100.00;102493.53;5245911;28;20106;-45
2024/01/09 05:14:48;;;;;;;1.70;0.95;;;-4.80;99.90;;;-5.57;100.00;102504.22;5242133;28;20076;-44
2024/01/09 05:17:21;;;;;;;0.60;0.60;;;-4.80;99.90;;;-5.61;100.00;102496.94;5225240;28;20041;-44
2024/01/09 05:19:54;;;;;;;1.38;1.27;;;-4.80;99.90;;;-5.65;100.00;102504.91;5225157;28;20107;-44
2024/01/09 05:22:27;;;;;;;2.25;1.15;;;-4.90;99.90;;;-5.69;100.00;102505.22;5245211;28;20061;-45
2024/01/09 05:25:00;;;;;;;1.95;1.48;;;-4.90;99.90;;;-5.72;100.00;102504.84;5240400;28;20053;-42
2024/01/09 05:27:32;;;;;;;0.55;0.55;;;-4.90;99.90;;;-5.72;100.00;102502.31;5225608;28;20047;-43
2024/01/09 05:30:08;;;;;;;0.85;0.85;;;-5.00;99.90;;;-5.75;100.00;102513.88;5243906;28;20053;-44
2024/01/09 05:32:40;;;;;;;1.33;1.33;;;-5.00;99.90;;;-5.75;100.00;102512.97;5245769;28;20036;-44
2024/01/09 05:35:14;;;;;;;1.15;1.15;;;-4.90;99.90;;;-5.78;100.00;102513.50;5246242;28;20618;-43
2024/01/09 05:37:47;;;;;;;2.92;1.90;;;-5.00;99.90;;;-5.77;100.00;102511.88;5262752;28;20456;-43
2024/01/09 05:40:19;;;;;;;0.57;0.57;;;-5.00;99.90;;;-5.78;100.00;102516.06;5257079;28;20048;-43
2024/01/09 05:42:51;;;;;;;1.55;1.45;;;-5.00;99.90;;;-5.78;100.00;102503.34;5224693;28;20049;-45
2024/01/09 05:45:24;;;;;;;2.15;0.88;;;-5.00;99.90;;;-5.78;100.00;102505.88;5224458;28;20045;-44
2024/01/09 05:47:56;;;;;;;1.15;0.95;;;-5.00;99.90;;;-5.79;100.00;102505.72;5224225;28;20564;-44
2024/01/09 05:50:30;;;;;;;3.67;1.27;;;-5.00;99.90;;;-5.82;100.00;102496.06;5224990;28;20065;-42
2024/01/09 05:53:02;;;;;;;2.85;0.77;;;-5.00;99.90;;;-5.84;100.00;102501.66;5228640;28;20122;-43
2024/01/09 05:55:35;;;;;;;1.27;1.20;;;-5.10;99.90;;;-5.85;100.00;102499.84;5233045;28;20056;-43
2024/01/09 05:58:07;;;;;;;8.80;1.17;;;-5.10;99.90;;;-5.88;100.00;102504.53;5224588;28;20044;-44
2024/01/09 06:00:40;;;;;;;2.40;2.20;;;-5.10;99.90;;;-5.91;100.00;102505.09;5229438;28;20411;-43
2024/01/09 06:03:12;;;;;;;3.10;1.10;;;-5.10;99.90;;;-5.93;100.00;102501.47;5245191;28;20094;-45
2024/01/09 06:05:46;;;;;;;1.10;0.85;;;-5.10;99.90;;;-5.95;100.00;102512.13;5245099;28;20143;-45
2024/01/09 06:08:18;;;;;;;3.85;1.58;;;-5.20;99.90;;;-5.97;100.00;102508.47;5261859;28;20139;-43
2024/01/09 06:10:50;;;;;;;4.72;1.85;;;-5.20;99.90;;;-5.99;100.00;102509.94;5245032;28;20136;-44
2024/01/09 06:13:23;;;;;;;1.35;1.25;;;-5.20;99.90;;;-6.00;100.00;102493.75;5242485;28;20056;-44
2024/01/09 06:15:55;;;;;;;1.65;1.02;;;-5.20;99.90;;;-6.00;100.00;102508.97;5259811;28;20049;-45
2024/01/09 06:18:28;;;;;;;0.57;0.57;;;-5.20;99.90;;;-6.04;100.00;102500.09;5244823;28;20439;-45
2024/01/09 06:21:01;;;;;;;3.30;2.63;;;-5.20;99.90;;;-6.03;100.00;102508.63;5240751;28;20091;-43
2024/01/09 06:23:34;;;;;;;2.22;1.05;;;-5.20;99.90;;;-6.05;100.00;102495.72;5224490;28;20045;-43
2024/01/09 06:26:06;;;;;;;4.53;2.42;;;-5.30;99.90;;;-6.03;100.00;102509.53;5244790;28;20052;-43
2024/01/09 06:28:43;;;;;;;2.95;1.80;;;-5.20;99.90;;;-6.05;100.00;102499.91;5240834;28;20076;-43
2024/01/09 06:31:16;;;;;;;4.43;1.00;;;-5.30;99.90;;;-6.05;100.00;102502.44;5233875;28;20052;-44
2024/01/09 06:33:49;;;;;;;2.95;1.98;;;-5.30;99.90;;;-6.07;100.00;102503.84;5245164;28;20364;-44
2024/01/09 06:36:23;;;;;;;1.10;1.10;;;-5.30;99.90;;;-6.07;100.00;102497.13;5233955;28;20501;-44
2024/01/09 06:38:55;;;;;;;1.42;1.30;;;-5.30;99.90;;;-6.08;100.00;102499.50;5230924;28;20097;-44
2024/01/09 06:41:27;;;;;;;4.05;2.05;;;-5.30;99.90;;;-6.10;100.00;102495.84;5240419;28;20059;-44
2024/01/09 06:44:00;;;;;;;1.70;1.60;;;-5.30;99.90;;;-6.12;100.00;102498.19;5243210;28;20041;-45
2024/01/09 06:46:32;;;;;;;1.92;1.73;;;-5.30;99.90;;;-6.12;100.00;102499.84;5244330;28;20479;-44
2024/01/09 06:49:05;;;;;;;2.92;1.20;;;-5.30;99.90;;;-6.13;100.00;102497.97;5244250;28;20640;-44
2024/01/09 06:51:38;;;;;;;1.50;0.93;;;-5.30;99.90;;;-6.14;100.00;102497.06;5244274;28;20056;-43
2024/01/09 06:54:11;;;;;;;1.33;1.23;;;-5.40;99.90;;;-6.15;100.00;102502.88;5245710;28;20048;-45
2024/01/09 06:56:44;;;;;;;5.32;1.98;;;-5.40;99.90;;;-6.16;100.00;102510.31;5252192;28;20144;-45
2024/01/09 06:59:17;;;;;;;3.70;1.65;;;-5.40;99.90;;;-6.16;100.00;102510.31;5241162;28;20052;-44
2024/01/09 07:01:49;;;;;;;1.80;1.67;;;-5.40;99.90;;;-6.18;100.00;102516.81;5260925;28;20049;-43
2024/01/09 07:04:22;;;;;;;1.65;1.50;;;-5.40;99.90;;;-6.19;100.00;102510.84;5254840;28;20098;-44
2024/01/09 07:06:55;;;;;;;2.33;1.58;;;-5.40;99.90;;;-6.18;100.00;102516.81;5223525;28;20138;-44
2024/01/09 07:09:28;;;;;;;7.10;1.42;;;-5.40;99.90;;;-6.18;100.00;102519.34;5223261;28;20743;-43
2024/01/09 07:12:00;;;;;;;2.55;1.27;;;-5.40;99.90;;;-6.20;100.00;102526.75;5232925;28;20059;-43
2024/01/09 07:14:32;;;;;;;1.90;1.48;;;-5.40;99.90;;;-6.22;100.00;102530.72;5243912;28;20499;-44
2024/01/09 07:17:05;;;;;;;6.72;1.23;;;-5.40;99.90;;;-6.19;100.00;102528.59;5243955;28;20056;-44
2024/01/09 07:19:38;;;;;;;2.63;1.60;;;-5.40;99.90;;;-6.17;100.00;102521.19;5243798;28;20096;-44
2024/01/09 07:22:11;;;;;;;2.60;1.42;;;-5.40;99.90;;;-6.14;100.00;102524.09;5242267;28;20446;-44
2024/01/09 07:24:47;;;;;;;3.33;1.45;;;-5.40;99.90;;;-6.13;100.00;102533.53;5244009;28;20052;-45
2024/01/09 07:27:19;;;;;;;1.13;1.13;;;-5.40;99.90;;;-6.13;100.00;102528.44;5239697;28;20044;-44
2024/01/09 07:29:52;;;;;;;3.25;1.05;;;-5.40;99.90;;;-6.14;100.00;102527.53;5240722;28;20053;-44
2024/01/09 07:32:25;;;;;;;3.25;1.33;;;-5.30;99.90;;;-6.15;100.00;102522.28;5243304;28;20048;-44
2024/01/09 07:34:58;;;;;;;1.42;0.73;;;-5.40;99.90;;;-6.15;100.00;102525.72;5243384;28;20037;-42
2024/01/09 07:37:31;;;;;;;2.50;1.67;;;-5.40;99.90;;;-6.15;100.00;102527.34;5204536;28;20118;-44
2024/01/09 07:40:05;;;;;;;3.00;2.70;;;-5.40;99.90;;;-6.15;100.00;102537.50;5264035;28;20047;-42
2024/01/09 07:42:38;;;;;;;6.22;1.42;;;-5.40;99.90;;;-6.14;100.00;102542.78;5259197;28;20491;-43
2024/01/09 07:45:11;;;;;;;1.33;0.90;;;-5.40;99.90;;;-6.02;100.00;102528.19;5260348;28;20582;-43
2024/01/09 07:47:43;;;;;;;0.38;0.38;;;-5.30;99.90;;;-5.94;100.00;102530.09;5256963;28;20064;-43
2024/01/09 07:50:16;;;;;;;1.15;1.15;;;-5.20;99.90;;;-5.93;100.00;102531.94;5262160;28;20040;-42
2024/01/09 07:52:50;;;;;;;3.15;0.80;;;-5.20;99.90;;;-5.55;100.00;102528.19;5257216;28;20048;-44
2024/01/09 07:55:23;;;;;;;3.35;1.80;;;-4.90;99.90;;;-5.58;100.00;102533.81;5250743;28;20606;-45
2024/01/09 07:57:55;;;;;;;3.67;1.95;;;-4.80;99.90;;;-5.61;100.00;102532.50;5243225;28;20494;-44
2024/01/09 08:00:28;;;;;;;3.15;1.33;;;-4.80;99.90;;;-5.66;100.00;102542.09;5199798;28;20588;-42
2024/01/09 08:03:00;;;;;;;3.50;2.25;;;-4.80;99.90;;;-5.69;100.00;102539.16;5250865;28;20499;-42
2024/01/09 08:05:32;;;;;;;3.28;1.05;;;-4.90;99.90;;;-5.74;100.00;102541.13;5258630;28;20067;-42
2024/01/09 08:08:07;;;;;;;4.00;2.00;;;-4.90;99.90;;;-5.77;100.00;102545.81;5263825;28;20047;-43
2024/01/09 08:10:40;;;;;;;1.65;1.55;;;-5.00;99.90;;;-5.79;100.00;102548.91;5254115;28;20036;-44
2024/01/09 08:13:12;;;;;;;2.40;1.67;;;-5.00;99.90;;;-5.78;100.00;102550.72;5251764;28;20497;-43
2024/01/09 08:15:44;;;;;;;1.77;0.85;;;-5.00;99.90;;;-5.78;100.00;102549.06;5260984;28;20487;-43
2024/01/09 08:18:17;;;;;;;1.40;1.10;;;-5.00;99.90;;;-5.76;100.00;102549.25;5258174;28;20040;-42
2024/01/09 08:20:49;;;;;;;1.83;1.00;;;-5.00;99.90;;;-5.72;100.00;102553.13;5250301;28;20521;-43
2024/01/09 08:23:24;;;;;;;2.58;1.60;;;-5.00;99.90;;;-5.69;100.00;102548.41;5254534;28;20059;-43
2024/01/09 08:25:57;;;;;;;0.90;0.90;;;-5.00;99.90;;;-5.64;100.00;102549.91;5252731;28;20056;-42
2024/01/09 08:28:29;;;;;;;2.63;1.75;;;-4.90;99.90;;;-5.61;100.00;102542.66;5253634;28;20048;-42
2024/01/09 08:31:02;;;;;;;1.00;0.98;;;-4.90;99.90;;;-5.56;100.00;102547.63;5251218;28;20075;-44
2024/01/09 08:33:35;;;;;;;4.60;1.95;;;-4.80;99.90;;;-5.54;100.00;102545.28;5255397;28;20531;-44
2024/01/09 08:36:07;;;;;;;1.95;1.85;;;-4.80;99.90;;;-5.52;100.00;102549.84;5258940;28;20466;-43
2024/01/09 08:38:41;;;;;;;1.20;1.10;;;-4.80;99.90;;;-5.48;100.00;102546.03;5253815;28;20056;-43
2024/01/09 08:41:17;;;;;;;3.95;1.30;;;-4.70;99.90;;;-5.43;100.00;102557.69;5263721;28;20048;-42
2024/01/09 08:43:49;;;;;;;7.05;3.58;;;-4.70;99.90;;;-5.39;100.00;102562.47;5263817;28;20040;-43
2024/01/09 08:46:21;;;;;;;1.38;1.23;;;-4.70;99.90;;;-5.35;100.00;102559.56;5256729;28;20075;-43
2024/01/09 08:48:57;;;;;;;1.58;1.10;;;-4.60;99.90;;;-5.29;100.00;102544.16;5255074;28;20602;-42
2024/01/09 08:51:29;;;;;;;2.33;1.92;;;-4.60;99.90;;;-5.24;100.00;102556.75;5248003;28;20564;-45
2024/01/09 08:54:03;;;;;;;1.02;1.02;;;-4.50;99.90;;;-5.19;100.00;102557.31;5257663;28;20101;-43
2024/01/09 08:56:35;;;;;;;1.02;0.73;;;-4.50;99.90;;;-5.14;100.00;102560.47;5251680;28;20041;-44
2024/01/09 08:59:08;;;;;;;1.60;1.20;;;-4.40;99.90;;;-5.09;100.00;102551.75;5254303;28;20044;-42
2024/01/09 09:01:41;;;;;;;1.48;1.38;;;-4.40;99.90;;;-5.06;100.00;102544.50;5262373;28;20070;-43
2024/01/09 09:04:13;;;;;;;2.20;2.00;;;-4.40;99.90;;;-5.00;100.00;102560.53;5256359;28;20143;-43
2024/01/09 09:06:46;;;;;;;2.05;1.17;;;-4.30;99.90;;;-4.95;100.00;102559.47;5254524;28;20044;-44
2024/01/09 09:09:19;;;;;;;3.20;1.65;;;-4.30;99.90;;;-4.89;100.00;102555.16;5246706;28;20052;-43
2024/01/09 09:11:52;;;;;;;3.85;1.67;;;-4.20;99.90;;;-4.83;100.00;102552.44;5248699;28;20049;-44
2024/01/09 09:14:24;;;;;;;1.17;0.90;;;-4.20;99.90;;;-4.77;100.00;102553.19;5258907;28;20325;-43
2024/01/09 09:16:56;;;;;;;3.00;2.00;;;-4.10;99.90;;;-4.71;100.00;102554.84;5258306;28;20048;-44
2024/01/09 09:19:31;;;;;;;3.33;1.70;;;-4.10;99.90;;;-4.65;100.00;102567.44;5252724;28;20091;-42
2024/01/09 09:22:03;;;;;;;2.60;1.55;;;-4.00;99.90;;;-4.57;100.00;102570.91;5256294;28;20044;-43
2024/01/09 09:24:37;;;;;;;2.50;1.83;;;-3.90;99.90;;;-4.51;100.00;102569.13;5248620;28;20415;-44
2024/01/09 09:27:09;;;;;;;1.45;1.35;;;-3.80;99.90;;;-4.46;100.00;102563.88;5254110;28;20498;-43
2024/01/09 09:29:42;;;;;;;3.55;1.48;;;-3.80;99.90;;;-4.40;100.00;102567.16;5252282;28;20079;-43
2024/01/09 09:32:15;;;;;;;1.23;1.13;;;-3.80;99.90;;;-4.33;100.00;102563.72;5259968;28;20040;-44
2024/01/09 09:34:47;;;;;;;3.85;1.67;;;-3.70;99.90;;;-4.25;100.00;102564.66;5254863;28;20065;-43
2024/01/09 09:37:20;;;;;;;0.98;0.95;;;-3.60;99.90;;;-4.18;100.00;102563.03;5252739;28;20086;-43
2024/01/09 09:39:53;;;;;;;1.52;1.33;;;-3.50;99.90;;;-4.10;100.00;102562.34;5261300;28;20515;-44
2024/01/09 09:42:27;;;;;;;0.80;0.80;;;-3.50;99.90;;;-4.03;100.00;102560.53;5245352;28;20040;-43
2024/01/09 09:45:02;;;;;;;1.45;1.35;;;-3.40;99.90;;;-3.96;100.00;102561.47;5259615;28;20048;-45
2024/01/09 09:47:34;;;;;;;3.97;1.95;;;-3.40;99.90;;;-3.86;100.00;102555.81;5256507;28;20040;-43
2024/01/09 09:50:10;;;;;;;2.10;1.67;;;-3.30;99.90;;;-3.76;100.00;102556.19;5261510;28;20048;-44
2024/01/09 09:52:43;;;;;;;1.52;0.88;;;-3.20;99.90;;;-3.64;100.00;102560.22;5254863;28;20052;-43
2024/01/09 09:55:19;;;;;;;3.33;1.92;;;-3.10;99.90;;;-3.51;100.00;102552.38;5253676;28;20079;-43
2024/01/09 09:57:51;;;;;;;1.25;1.10;;;-3.00;99.90;;;-3.35;100.00;102550.91;5261921;28;20425;-45
2024/01/09 10:00:24;;;;;;;3.00;1.30;;;-2.80;99.90;;;-3.15;100.00;102553.22;5255020;28;20102;-43
2024/01/09 10:03:02;;;;;;;2.80;2.30;;;-2.70;99.90;;;-3.02;100.00;102548.81;5262356;28;20433;-43
2024/01/09 10:05:38;;;;;;;6.55;3.28;;;-2.60;99.90;;;-2.85;100.00;102544.78;5265165;28;20049;-43
2024/01/09 10:08:14;;;;;;;2.72;2.50;;;-2.40;99.90;;;-2.71;100.00;102544.72;5264116;28;20059;-45
2024/01/09 10:10:48;;;;;;;3.15;1.48;;;-2.30;99.90;;;-2.58;100.00;102547.94;5251314;28;20048;-45
2024/01/09 10:13:22;;;;;;;3.53;1.90;;;-2.20;99.90;;;-2.46;100.00;102551.91;5282355;28;20060;-44
2024/01/09 10:15:58;;;;;;;3.88;2.75;;;-2.00;99.90;;;-2.29;100.00;102540.13;5251407;28;20036;-44
2024/01/09 10:18:32;;;;;;;3.85;1.77;;;-1.90;99.90;;;-2.13;100.00;102537.69;5251686;28;20139;-44
2024/01/09 10:21:07;;;;;;;4.25;1.67;;;-1.70;99.90;;;-1.98;100.00;102536.84;5269343;28;20384;-44
2024/01/09 10:23:40;;;;;;;3.20;2.25;;;-1.60;99.90;;;-1.82;100.00;102532.72;5253065;28;20041;-44
2024/01/09 10:26:14;;;;;;;4.18;1.45;;;-1.50;99.90;;;-1.68;99.28;102526.59;5254792;28;20040;-43
2024/01/09 10:28:49;;;;;;;3.55;2.78;;;-1.30;99.90;;;-1.58;98.66;102516.63;5254783;28;20040;-44
2024/01/09 10:31:21;;;;;;;;;;;-1.20;99.90;;;-1.45;98.24;102517.22;5261516;28;20074;-43